»·PEaware :: SWA4163 KOAK-KLAX

SWA4163 :: KOAK-KLAX

FLIGHT INFORMATION

Flight Status: Arrived
Operator:
Southwest Airlines
More flights by this operator :: More flights under this callsign
Pilot: Mike B. (19113)
Aircraft: BOEING 737-800
(B738)
More flights by this aircraft type
Origin: KOAK Metro Oakland Intl
United States
Destination: KLAX Los Angeles Intl
United States
More flights between these airports :: More routes between these airports
Route: +CNDEL3 EBAYE BURGL IRNMN1
File this flight plan on PilotEdge
Remarks: PBN / A1B1C1D1S1S2 DOF / 180514 REG / N806SB EET / KZAK0020 KZLA0025 OPR / SWA PER / C RMK / TCAS SIMBRIEF
Altitude:
(Current/Filed)
37,000ft
Speed:
(Current/Filed)
435kts
Departed: 13-May-18 06:08 PM
Arrived: 13-May-18 07:04 PM
Distance/Time
Traveled:
292nm/0:56
Distance/Time
To Go:
Arrived

Flight Plot

Page will automatically refresh every two minutes.

Flight plan parsing failed; only flown route is shown


Map Options




Map Legend


Flown Route
Filed Route
Departure Airport
Arrival Airport
Navaid (VOR, NDB)
Fix

Horizontal Profiles

Position Reports

Time Latitude Longitude Heading Altitude Ground
Speed
13-May-18 17:46 37.710689 -122.212339 68 15ft 0kts
13-May-18 17:47 37.710689 -122.212339 68 15ft 0kts
13-May-18 17:48 37.710689 -122.212339 68 15ft 0kts
13-May-18 17:49 37.710689 -122.212339 68 15ft 0kts
13-May-18 17:50 37.710689 -122.212339 68 15ft 0kts
13-May-18 17:51 37.710689 -122.212339 68 15ft 0kts
13-May-18 17:52 37.710689 -122.212339 68 15ft 0kts
13-May-18 17:53 37.710689 -122.212339 68 15ft 0kts
13-May-18 17:54 37.710689 -122.212339 68 15ft 0kts
13-May-18 17:55 37.710689 -122.212339 68 15ft 0kts
13-May-18 17:56 37.710689 -122.212339 68 15ft 0kts
13-May-18 17:57 37.710689 -122.212339 68 15ft 0kts
13-May-18 17:58 37.710689 -122.212339 68 15ft 0kts
13-May-18 17:59 37.710689 -122.212339 68 15ft 0kts
13-May-18 18:00 37.710537 -122.212813 68 15ft 2kts
13-May-18 18:01 37.710590 -122.213539 122 15ft 2kts
13-May-18 18:02 37.710112 -122.213774 215 15ft 0kts
13-May-18 18:03 37.710108 -122.213777 215 15ft 0kts
13-May-18 18:04 37.710032 -122.213846 215 15ft 4kts
13-May-18 18:05 37.708081 -122.216667 220 15ft 15kts
13-May-18 18:06 37.704550 -122.215035 130 15ft 19kts
13-May-18 18:07 37.702880 -122.213652 163 15ft 0kts
13-May-18 18:08 37.705312 -122.219937 309 15ft 109kts
13-May-18 18:09 37.741091 -122.270718 310 2192ft 257kts
13-May-18 18:10 37.788030 -122.345050 305 5876ft 245kts
13-May-18 18:11 37.754493 -122.403249 195 9267ft 269kts
13-May-18 18:12 37.692820 -122.420150 192 12192ft 280kts
13-May-18 18:13 37.608572 -122.442766 192 14590ft 343kts
13-May-18 18:14 37.495542 -122.459624 168 18595ft 369kts
13-May-18 18:15 37.415733 -122.381134 128 21499ft 386kts
13-May-18 18:16 37.342758 -122.277763 130 24101ft 406kts
13-May-18 18:17 37.265639 -122.172342 131 26361ft 424kts
13-May-18 18:18 37.184959 -122.062982 131 28406ft 440kts
13-May-18 18:19 37.100769 -121.949488 131 30548ft 447kts
13-May-18 18:20 37.031068 -121.855897 131 32418ft 445kts
13-May-18 18:21 36.947286 -121.743795 132 34468ft 441kts
13-May-18 18:22 36.865992 -121.635482 132 36217ft 437kts
13-May-18 18:23 36.782458 -121.524578 132 37090ft 453kts
13-May-18 18:24 36.693013 -121.406261 132 37081ft 477kts
13-May-18 18:25 36.604211 -121.289195 133 37076ft 477kts
13-May-18 18:26 36.513826 -121.170420 133 37078ft 479kts
13-May-18 18:27 36.421618 -121.049446 131 37073ft 488kts
13-May-18 18:28 36.332639 -120.921548 129 37057ft 494kts
13-May-18 18:29 36.243147 -120.793011 129 37059ft 495kts
13-May-18 18:30 36.153415 -120.664783 129 37060ft 495kts
13-May-18 18:31 36.063500 -120.536881 129 37061ft 494kts
13-May-18 18:32 35.973787 -120.409801 129 37046ft 495kts
13-May-18 18:33 35.889871 -120.291328 130 37028ft 495kts
13-May-18 18:34 35.790800 -120.198995 149 37042ft 495kts
13-May-18 18:35 35.675885 -120.113352 149 37049ft 495kts
13-May-18 18:36 35.558964 -120.025643 149 37052ft 495kts
13-May-18 18:37 35.441723 -119.937748 149 37042ft 495kts
13-May-18 18:38 35.325692 -119.850972 149 37017ft 495kts
13-May-18 18:39 35.213453 -119.754720 142 37035ft 495kts
13-May-18 18:40 35.115949 -119.663651 142 36267ft 511kts
13-May-18 18:41 35.050630 -119.602789 142 36331ft 518kts
13-May-18 18:42 34.941052 -119.500956 143 34454ft 487kts
13-May-18 18:43 34.838571 -119.407978 145 30427ft 483kts
13-May-18 18:44 34.731434 -119.312417 145 25504ft 486kts
13-May-18 18:45 34.633221 -119.226577 145 23085ft 441kts
13-May-18 18:46 34.538323 -119.144390 144 21100ft 403kts
13-May-18 18:47 34.455144 -119.070809 144 19356ft 392kts
13-May-18 18:48 34.373210 -118.999441 145 17604ft 381kts
13-May-18 18:49 34.289319 -118.925091 143 15772ft 370kts
13-May-18 18:50 34.209576 -118.852317 142 13982ft 351kts
13-May-18 18:51 34.140262 -118.785921 137 12471ft 309kts
13-May-18 18:52 34.078270 -118.718131 137 11141ft 294kts
13-May-18 18:53 34.025613 -118.645774 104 9856ft 294kts
13-May-18 18:54 34.016893 -118.552322 94 8590ft 287kts
13-May-18 18:55 34.009222 -118.462755 95 7393ft 261kts
13-May-18 18:56 34.020492 -118.380227 74 6294ft 242kts
13-May-18 18:57 34.029467 -118.308632 83 5854ft 233kts
13-May-18 18:58 34.035555 -118.231526 94 4955ft 234kts
13-May-18 18:59 33.992905 -118.221466 229 4264ft 199kts
13-May-18 19:00 33.966709 -118.273658 258 2860ft 157kts
13-May-18 19:01 33.959771 -118.321660 264 1435ft 136kts
13-May-18 19:02 33.955529 -118.364668 263 762ft 127kts
13-May-18 19:03 33.951530 -118.407287 262 134ft 123kts
13-May-18 19:04 33.949425 -118.419218 231 133ft 22kts
13-May-18 19:05 33.949196 -118.419575 233 133ft 0kts

Navigation Log

Ident Type
Flight plan parsing failed, navigation log unavailable